Flight Track Log - Related Links

Times and Time Zones

All times are in EDT time to prevent confusion due to time zone crossing. See the C-GPIM flight status page for this flight to view local times or setup timezone preferences in your user account.

Time Position Orientation Groundspeed Altitude Reporting Facility
EDT Latitude Longitude Course Direction KTS MPH feet Rate Location/Type
Wed 07:55:25 PM 53.6500 -113.2000 211° Southwest 130 150 5,400  Level Edmonton Center
Wed 07:56:25 PM 53.6333 -113.2167 211° Southwest 120 138 6,200 850 Climbing Edmonton Center
Wed 07:57:25 PM 53.6000 -113.2500 211° Southwest 140 161 7,100 950 Climbing Edmonton Center
Wed 07:58:25 PM 53.5333 -113.2667 188° South 140 161 8,100 500 Climbing Edmonton Center
Wed 07:59:25 PM 53.5000 -113.2833 197° South 170 196 8,100  Level Edmonton Center
Wed 08:00:25 PM 53.4500 -113.3000 191° South 180 207 8,100  Level Edmonton Center
Wed 08:01:25 PM 53.4000 -113.3167 191° South 180 207 8,100  Level Edmonton Center
Wed 08:02:25 PM 53.3667 -113.3667 222° Southwest 180 207 8,100  Level Edmonton Center
Wed 08:03:25 PM 53.3167 -113.3833 191° South 180 207 8,100  Level Edmonton Center
Wed 08:04:25 PM 53.2667 -113.4000 191° South 180 207 8,100  Level Edmonton Center
Wed 08:05:25 PM 53.2000 -113.4167 189° South 190 219 8,100  Level Edmonton Center
Wed 08:06:25 PM 53.1500 -113.4333 191° South 190 219 8,100  Level Edmonton Center
Wed 08:07:25 PM 53.1000 -113.4500 191° South 180 207 8,100  Level Edmonton Center
Wed 08:08:25 PM 53.0500 -113.4667 191° South 190 219 8,100  Level Edmonton Center
Wed 08:09:25 PM 53.0167 -113.5000 211° Southwest 180 207 8,100  Level Edmonton Center
Wed 08:10:25 PM 52.9667 -113.5167 191° South 180 207 8,100  Level Edmonton Center
Wed 08:11:25 PM 52.9000 -113.5667 204° Southwest 180 207 8,100  Level Edmonton Center
Wed 08:12:25 PM 52.8667 -113.5833 197° South 180 207 8,100  Level Edmonton Center
Wed 08:14:25 PM 52.7667 -113.6167 191° South 180 207 8,100  Level Edmonton Center
Wed 08:15:25 PM 52.7167 -113.6333 191° South 180 207 8,100  Level Edmonton Center
Wed 08:16:25 PM 52.6667 -113.6500 191° South 180 207 8,100  Level Edmonton Center
Wed 08:17:25 PM 52.6167 -113.6333 169° South 190 219 8,100  Level Edmonton Center
Wed 08:18:25 PM 52.5667 -113.6500 191° South 190 219 8,100  Level Edmonton Center
Wed 08:19:25 PM 52.5000 -113.6667 189° South 190 219 8,100  Level Edmonton Center
Wed 08:20:25 PM 52.4500 -113.6833 191° South 190 219 8,100  Level Edmonton Center
Wed 08:21:25 PM 52.4000 -113.7000 191° South 190 219 8,100  Level Edmonton Center
Wed 08:22:25 PM 52.3500 -113.7000 180° South 190 219 8,100  Level Edmonton Center
Wed 08:23:25 PM 52.3000 -113.7167 192° South 190 219 8,100  Level Edmonton Center
Wed 08:24:25 PM 52.2500 -113.7333 192° South 190 219 8,100 -50 Level Edmonton Center
Wed 08:25:25 PM 52.2000 -113.7167 168° South 190 219 8,000 -50 Descending Edmonton Center
Wed 08:26:25 PM 52.1500 -113.7333 192° South 190 219 8,000  Level Edmonton Center
Wed 08:27:25 PM 52.0833 -113.7500 189° South 190 219 8,000  Level Edmonton Center
Wed 08:28:25 PM 52.0333 -113.7667 192° South 190 219 8,000 -100 Level Edmonton Center
Wed 08:29:25 PM 51.9667 -113.7500 171° South 190 219 7,800 -250 Descending Edmonton Center
Wed 08:30:25 PM 51.9167 -113.7667 192° South 190 219 7,500 -500 Descending Edmonton Center
Wed 08:31:25 PM 51.8667 -113.7833 192° South 200 230 6,800 -650 Descending Edmonton Center
Wed 08:32:25 PM 51.8167 -113.8000 192° South 200 230 6,200 -550 Descending Edmonton Center
Wed 08:33:25 PM 51.7667 -113.8167 192° South 190 219 5,700 -600 Descending Edmonton Center
Wed 08:34:25 PM 51.7167 -113.8333 192° South 190 219 5,000 -300 Descending Edmonton Center
Wed 08:35:25 PM 51.6667 -113.8500 192° South 170 196 5,100 50 Climbing Edmonton Center
Wed 08:36:25 PM 51.6333 -113.8667 197° South 150 173 5,100  Level Edmonton Center
Wed 08:37:25 PM 51.6000 -113.9167 223° Southwest 150 173 5,100  Level Edmonton Center
Wed 08:38:25 PM 51.6167 -113.9500 309° West 140 161 5,100 -100 Level Edmonton Center
Wed 08:39:25 PM 51.6500 -114.0167 309° West 130 150 4,900 -400 Descending Edmonton Center
Wed 08:40:25 PM 51.6667 -114.0667 298° West 110 127 4,300 -500 Descending Edmonton Center
Wed 08:41:25 PM 51.6667 -114.1000 270° West 110 127 3,900 -400 Descending Edmonton Center
Wed 08:43:00 PM 51.7443 -114.1000 North  Level FlightAware Approximate
Wed 08:50:00 PM 51.7000 -114.1000 197° South  Level FlightAware Approximate
Wed 08:51:00 PM 51.7490 -114.1000 North  Level FlightAware Approximate
Wed 08:52:00 PM 51.7000 -114.1000 180° South  Level FlightAware Approximate
Wed 08:53:00 PM 51.7000 -114.1000 197° South  Level FlightAware Approximate

Login

Don't have an account? Register now (free) for customized features, flight alerts, and more!